Time;durP1;ratioP1;P1;durP2;ratioP2;P2;SDS_P1;SDS_P2;PMS_P1;PMS_P2;Temp;Humidity;BMP_temperature;BMP_pressure;BME280_temperature;BME280_humidity;BME280_pressure;Samples;Min_cycle;Max_cycle;Signal;HPM_P1;HPM_P2
2022/11/28 00:01:16;;;;;;;6.63;6.23;;;;;;;6.44;100.00;147667.28;5095586;28;20247;-59
2022/11/28 00:03:43;;;;;;;6.10;5.80;;;;;;;6.60;100.00;147707.59;5095877;28;20673;-60
2022/11/28 00:06:11;;;;;;;7.27;6.63;;;;;;;6.61;100.00;147710.13;5095533;28;20231;-59
2022/11/28 00:08:39;;;;;;;7.10;6.60;;;;;;;6.64;100.00;147717.66;5095512;28;20216;-60
2022/11/28 00:11:07;;;;;;;7.27;6.87;;;;;;;6.35;100.00;147644.59;5094519;28;20623;-59
2022/11/28 00:13:35;;;;;;;7.63;7.00;;;;;;;6.60;100.00;147707.59;5095454;28;20216;-60
2022/11/28 00:16:04;;;;;;;6.30;6.00;;;;;;;6.60;100.00;147706.31;5095299;28;20188;-59
2022/11/28 00:18:31;;;;;;;6.83;6.43;;;;;;;6.73;100.00;147740.34;5095692;28;20663;-60
2022/11/28 00:21:00;;;;;;;7.00;6.63;;;;;;;6.75;100.00;147744.09;5095146;28;20232;-59
2022/11/28 00:23:29;;;;;;;7.17;6.83;;;;;;;6.75;100.00;147745.34;5095269;28;20198;-59
2022/11/28 00:25:59;;;;;;;6.93;6.43;;;;;;;6.76;100.00;147747.91;5095132;28;20577;-59
2022/11/28 00:28:26;;;;;;;6.23;5.93;;;;;;;6.74;100.00;147741.63;5095471;28;20639;-59
2022/11/28 00:30:53;;;;;;;6.77;6.37;;;;;;;6.70;100.00;147732.81;5095373;28;20215;-59
2022/11/28 00:33:20;;;;;;;6.67;6.17;;;;;;;6.62;100.00;147712.59;5095086;28;20188;-60
2022/11/28 00:35:47;;;;;;;6.40;6.10;;;;;;;6.67;100.00;147725.22;5094901;28;20241;-60
2022/11/28 00:38:14;;;;;;;6.03;5.73;;;;;;;6.58;100.00;147701.25;5094912;28;20219;-60
2022/11/28 00:40:42;;;;;;;5.97;5.57;;;;;;;6.62;100.00;147712.59;5094771;28;20248;-60
2022/11/28 00:43:10;;;;;;;5.63;5.33;;;;;;;6.63;100.00;147713.88;5095177;28;20555;-59
2022/11/28 00:45:37;;;;;;;6.47;5.97;;;;;;;6.67;100.00;147723.94;5094783;28;20188;-59
2022/11/28 00:48:05;;;;;;;6.43;6.03;;;;;;;6.68;100.00;147727.75;5094800;28;20270;-59
2022/11/28 00:50:32;;;;;;;6.33;5.93;;;;;;;6.75;100.00;147745.34;5094575;28;20332;-59
2022/11/28 00:52:59;;;;;;;7.13;6.77;;;;;;;6.88;100.00;147776.88;5094635;28;20279;-59
2022/11/28 00:55:26;;;;;;;6.33;5.83;;;;;;;6.87;100.00;147774.38;5095009;28;20278;-58
2022/11/28 00:57:54;;;;;;;6.40;5.97;;;;;;;6.82;100.00;147763.03;5094565;28;20245;-59
2022/11/28 01:00:22;;;;;;;6.43;5.93;;;;;;;6.83;100.00;147765.50;5094781;28;20546;-61
2022/11/28 01:02:49;;;;;;;6.30;5.90;;;;;;;6.84;100.00;147768.06;5094415;28;20241;-59
2022/11/28 01:05:16;;;;;;;6.77;6.17;;;;;;;6.83;100.00;147764.31;5094755;28;20188;-59
2022/11/28 01:07:43;;;;;;;5.90;5.60;;;;;;;6.89;100.00;147779.41;5094129;28;20192;-60
2022/11/28 01:10:11;;;;;;;6.27;5.80;;;;;;;6.81;100.00;147760.50;5094325;28;20241;-59
2022/11/28 01:12:38;;;;;;;6.00;5.70;;;;;;;6.82;100.00;147763.03;5094608;28;20672;-59
2022/11/28 01:15:11;;;;;;;6.27;5.97;;;;;;;6.68;100.00;147727.75;5094211;28;20260;-59
2022/11/28 01:17:38;;;;;;;5.90;5.60;;;;;;;6.74;100.00;147742.88;5094145;28;20223;-60
2022/11/28 01:20:07;;;;;;;7.50;5.87;;;;;;;6.81;100.00;147760.50;5094073;28;20247;-59
2022/11/28 01:22:37;;;;;;;6.10;5.80;;;;;;;6.76;100.00;147747.91;5094336;28;20188;-59
2022/11/28 01:25:05;;;;;;;6.00;5.60;;;;;;;6.75;100.00;147744.09;5094316;28;20181;-60
2022/11/28 01:27:32;;;;;;;6.13;5.83;;;;;;;6.61;100.00;147710.13;5094078;28;20180;-61
2022/11/28 01:30:01;;;;;;;6.00;5.70;;;;;;;6.67;100.00;147725.22;5093919;28;20241;-60
2022/11/28 01:32:29;;;;;;;5.77;5.47;;;;;;;6.68;100.00;147727.75;5094240;28;20184;-60
2022/11/28 01:34:56;;;;;;;6.37;5.97;;;;;;;6.60;100.00;147706.31;5093828;28;20231;-59
2022/11/28 01:37:23;;;;;;;5.80;5.50;;;;;;;6.50;100.00;147682.38;5093805;28;20191;-58
2022/11/28 01:39:50;;;;;;;6.47;6.17;;;;;;;6.38;100.00;147652.13;5093899;28;20207;-59
2022/11/28 01:42:18;;;;;;;5.93;5.63;;;;;;;6.07;100.00;147574.09;5092534;28;20219;-60
2022/11/28 01:45:14;;;;;;;6.03;5.70;;;;;;;6.41;100.00;147659.69;5093629;28;20658;-60
2022/11/28 01:47:44;;;;;;;6.83;6.23;;;;;;;6.37;100.00;147649.59;5093553;28;20184;-59
2022/11/28 01:50:12;;;;;;;6.77;6.27;;;;;;;6.44;100.00;147667.28;5093400;28;20239;-59
2022/11/28 01:52:43;;;;;;;6.50;6.17;;;;;;;6.46;100.00;147672.28;5093643;28;20241;-59
2022/11/28 01:55:13;;;;;;;5.83;5.43;;;;;;;6.48;100.00;147676.09;5093766;28;20204;-59
2022/11/28 01:57:40;;;;;;;6.40;5.90;;;;;;;6.44;100.00;147667.28;5093414;28;20188;-60
2022/11/28 02:00:11;;;;;;;6.23;5.83;;;;;;;6.47;100.00;147674.81;5093550;28;20783;-58
2022/11/28 02:02:44;;;;;;;5.80;5.50;;;;;;;6.38;100.00;147652.13;5093162;28;20188;-59
2022/11/28 02:05:11;;;;;;;5.97;5.57;;;;;;;6.32;100.00;147637.06;5093851;28;20666;-59
2022/11/28 02:07:39;;;;;;;6.40;6.00;;;;;;;6.30;100.00;147633.25;5093501;28;20605;-59
2022/11/28 02:10:09;;;;;;;6.33;5.90;;;;;;;6.33;100.00;147639.53;5093419;28;20188;-60
2022/11/28 02:12:54;;;;;;;6.67;6.17;;;;;;;6.27;100.00;147625.72;5093050;28;20188;-59
2022/11/28 02:15:31;;;;;;;5.80;5.50;;;;;;;6.29;100.00;147630.72;5093368;28;20626;-59
2022/11/28 02:18:18;;;;;;;6.33;6.00;;;;;;;6.29;100.00;147629.47;5092946;28;20188;-60
2022/11/28 02:21:12;;;;;;;7.00;6.60;;;;;;;6.34;100.00;147101.09;5091985;28;20208;-58
2022/11/28 02:24:09;;;;;;;6.10;5.77;;;;;;;6.26;100.00;147621.91;5093181;28;20562;-59
2022/11/28 02:27:05;;;;;;;6.50;6.07;;;;;;;6.19;100.00;144642.47;5090467;28;20234;-60
2022/11/28 02:30:10;;;;;;;6.27;5.97;;;;;;;6.20;100.00;141058.91;5093038;28;20220;-59
2022/11/28 02:32:48;;;;;;;6.87;6.43;;;;;;;6.21;100.00;140897.38;5085044;28;20196;-59
2022/11/28 02:35:20;;;;;;;7.10;6.70;;;;;;;6.20;100.00;142783.66;5093041;28;20282;-60
2022/11/28 02:37:55;;;;;;;7.77;7.27;;;;;;;6.20;100.00;143131.22;5092905;28;20185;-60
2022/11/28 02:40:26;;;;;;;8.20;7.50;;;;;;;6.03;100.00;140206.00;5092841;28;20555;-61
2022/11/28 02:43:03;;;;;;;10.70;7.20;;;;;;;5.98;100.00;140679.22;5092455;28;20253;-59
2022/11/28 02:45:37;;;;;;;8.80;8.00;;;;;;;5.92;100.00;135100.47;5092780;28;20219;-60
2022/11/28 02:48:11;;;;;;;8.20;7.60;;;;;;;5.94;100.00;132270.66;5092740;28;20691;-59
2022/11/28 02:50:43;;;;;;;7.80;7.30;;;;;;;5.91;100.00;129894.06;5092278;28;20263;-60
2022/11/28 02:53:16;;;;;;;7.60;7.10;;;;;;;5.76;100.00;126898.81;5092350;28;20193;-60
2022/11/28 02:55:44;;;;;;;7.93;7.23;;;;;;;5.82;100.00;124405.69;5092781;28;20227;-60
2022/11/28 02:58:12;;;;;;;8.43;7.83;;;;;;;5.83;100.00;121595.34;5092691;28;20210;-59
2022/11/28 03:00:42;;;;;;;9.33;8.37;;;;;;;5.68;100.00;113949.03;5092115;28;20204;-59
2022/11/28 03:03:48;;;;;;;7.90;7.40;;;;;;;5.70;100.00;109562.97;5092224;28;20199;-60
2022/11/28 03:06:28;;;;;;;8.77;8.07;;;;;;;5.74;100.00;107354.75;5074284;28;20234;-60
2022/11/28 03:09:14;;;;;;;8.47;7.77;;;;;;;5.62;100.00;105749.19;5092334;28;20579;-59
2022/11/28 03:11:54;;;;;;;8.80;8.13;;;;;;;5.63;100.00;103013.06;5091291;28;20609;-60
2022/11/28 03:14:34;;;;;;;8.43;7.80;;;;;;;5.59;100.00;98548.16;5092470;28;20567;-60
2022/11/28 03:17:13;;;;;;;8.90;8.00;;;;;;;5.59;100.00;95083.28;5092011;28;20249;-59
2022/11/28 03:19:44;;;;;;;8.67;8.07;;;;;;;5.62;100.00;93947.19;5091968;28;20222;-59
2022/11/28 03:22:21;;;;;;;8.60;8.10;;;;;;;5.70;100.00;91180.22;5091892;28;20214;-60
2022/11/28 03:24:55;;;;;;;8.37;7.77;;;;;;;5.67;100.00;92365.78;5092205;28;20252;-59
2022/11/28 03:27:26;;;;;;;8.73;7.77;;;;;;;5.50;100.00;93973.72;5091893;28;20351;-60
2022/11/28 03:29:55;;;;;;;8.97;8.30;;;;;;;5.58;100.00;97446.06;5091890;28;20220;-60
2022/11/28 03:32:27;;;;;;;7.63;7.17;;;;;;;5.51;100.00;97977.25;5091902;28;20234;-60
2022/11/28 03:35:00;;;;;;;7.97;7.50;;;;;;;5.51;100.00;96196.91;5091665;28;20256;-60
2022/11/28 03:37:33;;;;;;;8.50;8.00;;;;;;;5.56;100.00;95169.25;5092085;28;20599;-61
2022/11/28 03:40:06;;;;;;;8.03;7.53;;;;;;;5.53;100.00;94345.19;5091686;28;20223;-61
2022/11/28 03:42:38;;;;;;;7.97;7.47;;;;;;;5.51;100.00;95012.47;5091985;28;20630;-61
2022/11/28 03:45:09;;;;;;;8.50;7.90;;;;;;;5.44;100.00;93247.03;5092078;28;20224;-59
2022/11/28 03:47:40;;;;;;;8.10;7.50;;;;;;;5.48;100.00;91702.91;5091663;28;20245;-60
2022/11/28 03:50:14;;;;;;;8.20;7.60;;;;;;;5.33;100.00;91948.97;5091583;28;20757;-60
2022/11/28 03:52:49;;;;;;;7.50;6.93;;;;;;;5.17;100.00;92272.13;5091583;28;20188;-60
2022/11/28 03:55:21;;;;;;;7.67;7.17;;;;;;;5.39;100.00;89397.63;5091997;28;20641;-60
2022/11/28 03:57:58;;;;;;;8.60;7.90;;;;;;;5.51;100.00;90031.41;5091514;28;20219;-60
2022/11/28 04:00:26;;;;;;;8.67;7.93;;;;;;;5.44;100.00;88290.19;5091449;28;20188;-60
2022/11/28 04:03:02;;;;;;;7.90;7.30;;;;;;;5.48;100.00;87770.16;5091790;28;20617;-60
2022/11/28 04:05:38;;;;;;;9.13;8.37;;;;;;;5.39;100.00;86330.72;5091544;28;20180;-59
2022/11/28 04:08:14;;;;;;;7.73;7.23;;;;;;;5.46;100.00;84390.88;5091507;28;20230;-60
2022/11/28 04:10:45;;;;;;;8.93;8.03;;;;;;;5.46;100.00;85412.31;5091721;28;20554;-60
2022/11/28 04:13:18;;;;;;;8.67;7.97;;;;;;;5.41;100.00;83934.34;5091404;28;20234;-60
2022/11/28 04:15:53;;;;;;;7.27;6.87;;;;;;;5.39;100.00;84178.38;5091686;28;20631;-60
2022/11/28 04:18:25;;;;;;;7.83;7.43;;;;;;;5.47;100.00;83283.09;5091586;28;20219;-59
2022/11/28 04:20:57;;;;;;;7.80;7.30;;;;;;;5.53;100.00;83510.69;5091228;28;20244;-60
2022/11/28 04:23:27;;;;;;;8.47;7.73;;;;;;;5.59;100.00;84998.88;5091358;28;20191;-61
2022/11/28 04:26:01;;;;;;;8.13;7.53;;;;;;;5.65;100.00;89335.78;5091286;28;20246;-60
2022/11/28 04:28:31;;;;;;;6.87;6.47;;;;;;;5.43;100.00;92375.13;5091630;28;20639;-59
2022/11/28 04:31:02;;;;;;;7.97;7.27;;;;;;;5.42;100.00;85796.78;5091352;28;20234;-59
2022/11/28 04:33:33;;;;;;;8.10;7.63;;;;;;;5.38;100.00;83777.75;5091603;28;20719;-61
2022/11/28 04:36:05;;;;;;;7.80;7.30;;;;;;;5.45;100.00;86715.59;5091258;28;20184;-60
2022/11/28 04:38:34;;;;;;;7.37;6.77;;;;;;;5.53;100.00;89063.16;5091338;28;20180;-60
2022/11/28 04:41:08;;;;;;;7.47;7.07;;;;;;;5.59;100.00;92934.22;5091547;28;20281;-59
2022/11/28 04:43:41;;;;;;;8.23;7.73;;;;;;;5.47;100.00;96434.03;5093137;28;20192;-60
2022/11/28 04:46:13;;;;;;;7.53;7.10;;;;;;;5.66;100.00;99407.47;5094951;28;20184;-59
2022/11/28 04:48:41;;;;;;;7.30;6.80;;;;;;;5.62;100.00;100278.09;5094538;28;20227;-59
2022/11/28 04:51:15;;;;;;;8.23;7.63;;;;;;;5.59;100.00;100301.03;5095077;28;20692;-60
2022/11/28 04:53:50;;;;;;;7.97;7.40;;;;;;;5.40;100.00;99376.81;5094508;28;20219;-58
2022/11/28 04:56:21;;;;;;;7.67;7.17;;;;;;;5.46;100.00;93488.69;5094984;28;20650;-59
2022/11/28 04:58:51;;;;;;;7.63;6.97;;;;;;;5.52;100.00;94043.09;5094847;28;20645;-60
2022/11/28 05:01:21;;;;;;;7.03;6.60;;;;;;;5.55;100.00;96559.34;5094818;28;20631;-60
2022/11/28 05:03:50;;;;;;;7.53;6.93;;;;;;;5.44;100.00;98035.16;5094474;28;20230;-61
2022/11/28 05:06:26;;;;;;;7.37;6.77;;;;;;;5.48;100.00;98155.72;5094810;28;20650;-59
2022/11/28 05:08:55;;;;;;;7.23;6.73;;;;;;;5.46;100.00;102383.34;5094364;28;20216;-61
2022/11/28 05:11:22;;;;;;;8.43;7.23;;;;;;;5.51;100.00;102450.81;5094724;28;20642;-61
2022/11/28 05:13:49;;;;;;;7.80;7.40;;;;;;;5.41;100.00;101292.84;5094522;28;20261;-60
2022/11/28 05:16:17;;;;;;;8.43;7.77;;;;;;;5.49;100.00;103583.13;5093313;28;20664;-59
2022/11/28 05:18:44;;;;;;;7.20;6.60;;;;;;;5.35;100.00;103365.22;5094100;28;20227;-61
2022/11/28 05:21:11;;;;;;;7.73;7.13;;;;;;;5.40;100.00;101778.34;5094401;28;20559;-60
2022/11/28 05:23:40;;;;;;;8.77;7.90;;;;;;;5.41;100.00;100089.03;5094467;28;20700;-59
2022/11/28 05:26:10;;;;;;;8.40;7.90;;;;;;;5.38;100.00;103584.06;5094136;28;20187;-60
2022/11/28 05:28:37;;;;;;;8.20;7.80;;;;;;;5.36;100.00;107030.41;5094243;28;20184;-60
2022/11/28 05:31:05;;;;;;;8.73;7.73;;;;;;;5.45;100.00;110870.03;5094317;28;20176;-60
2022/11/28 05:33:33;;;;;;;8.03;7.30;;;;;;;5.45;100.00;117006.06;5093874;28;20275;-60
2022/11/28 05:36:04;;;;;;;9.13;7.57;;;;;;;5.36;100.00;123402.81;5093773;28;20273;-60
2022/11/28 05:38:32;;;;;;;14.53;7.83;;;;;;;5.39;100.00;117788.41;5094149;28;20266;-60
2022/11/28 05:40:59;;;;;;;8.23;7.70;;;;;;;5.38;100.00;121078.59;5093579;28;20245;-59
2022/11/28 05:43:28;;;;;;;8.50;7.80;;;;;;;5.25;100.00;124217.88;5093708;28;20217;-61
2022/11/28 05:45:56;;;;;;;7.90;7.30;;;;;;;5.39;100.00;125223.38;5093571;28;20228;-60
2022/11/28 05:48:24;;;;;;;8.57;7.97;;;;;;;5.27;100.00;132161.66;5093617;28;20245;-60
2022/11/28 05:50:51;;;;;;;9.23;7.63;;;;;;;5.43;100.00;134559.94;5093474;28;20287;-60
2022/11/28 05:53:19;;;;;;;10.40;7.80;;;;;;;5.33;100.00;136940.00;5093755;28;20591;-60
2022/11/28 05:55:47;;;;;;;8.13;7.30;;;;;;;5.42;100.00;139551.81;5093819;28;20234;-60
2022/11/28 05:58:14;;;;;;;7.90;7.37;;;;;;;5.39;100.00;141279.13;5093428;28;20223;-59
2022/11/28 06:00:42;;;;;;;8.73;8.07;;;;;;;5.42;100.00;142144.44;5093426;28;20185;-59
2022/11/28 06:03:09;;;;;;;8.20;7.60;;;;;;;5.37;100.00;146480.41;5093418;28;20204;-59
2022/11/28 06:05:40;;;;;;;7.90;7.30;;;;;;;5.53;100.00;147058.00;5093233;28;20219;-56
2022/11/28 06:08:07;;;;;;;7.57;7.17;;;;;;;5.63;100.00;147465.75;5093274;28;20657;-57
2022/11/28 06:10:34;;;;;;;7.97;7.47;;;;;;;5.68;100.00;147478.34;5093137;28;20184;-62
2022/11/28 06:13:02;;;;;;;8.57;8.07;;;;;;;5.73;100.00;147489.66;5093390;28;20181;-59
2022/11/28 06:15:30;;;;;;;7.97;7.23;;;;;;;5.73;100.00;147489.66;5093028;28;20207;-54
2022/11/28 06:17:58;;;;;;;8.73;7.37;;;;;;;5.53;100.00;147441.81;5093023;28;20235;-60
2022/11/28 06:20:25;;;;;;;8.43;7.67;;;;;;;5.61;100.00;147460.69;5093040;28;20188;-60
2022/11/28 06:22:52;;;;;;;9.17;8.50;;;;;;;5.61;100.00;147460.69;5092678;28;20204;-59
2022/11/28 06:25:19;;;;;;;8.47;7.67;;;;;;;5.58;100.00;147453.13;5093088;28;20235;-60
2022/11/28 06:27:46;;;;;;;8.73;7.97;;;;;;;5.63;100.00;147465.75;5092892;28;20241;-61
2022/11/28 06:30:14;;;;;;;8.10;7.60;;;;;;;5.45;100.00;147420.41;5092768;28;20234;-60
2022/11/28 06:32:41;;;;;;;7.40;6.90;;;;;;;5.55;100.00;147445.59;5092447;28;20238;-60
2022/11/28 06:35:10;;;;;;;9.03;7.60;;;;;;;5.71;100.00;147484.59;5092521;28;20271;-59
2022/11/28 06:37:37;;;;;;;8.90;8.00;;;;;;;5.74;100.00;147493.41;5092633;28;20286;-59
2022/11/28 06:40:05;;;;;;;8.40;7.80;;;;;;;5.58;100.00;147451.88;5092688;28;20223;-58
2022/11/28 06:42:34;;;;;;;7.93;7.13;;;;;;;5.68;100.00;147477.06;5092902;28;20262;-60
2022/11/28 06:45:01;;;;;;;7.87;7.23;;;;;;;5.70;100.00;147482.09;5092480;28;20188;-59
2022/11/28 06:47:28;;;;;;;8.33;7.50;;;;;;;5.69;100.00;147479.56;5092400;28;20217;-60
2022/11/28 06:49:55;;;;;;;8.30;7.43;;;;;;;5.70;100.00;147482.09;5091155;28;20231;-60
2022/11/28 06:52:23;;;;;;;8.67;8.03;;;;;;;5.71;100.00;147485.88;5092231;28;20274;-60
2022/11/28 06:54:50;;;;;;;8.57;7.93;;;;;;;5.69;100.00;147480.81;5092436;28;20234;-59
2022/11/28 06:57:18;;;;;;;8.07;7.10;;;;;;;5.68;100.00;147478.34;5092478;28;20547;-60
2022/11/28 06:59:45;;;;;;;10.83;7.13;;;;;;;5.67;100.00;147475.81;5092138;28;20188;-60
2022/11/28 07:02:12;;;;;;;8.13;7.63;;;;;;;5.76;100.00;147497.22;5092210;28;20246;-60
2022/11/28 07:04:38;;;;;;;11.80;7.53;;;;;;;5.83;100.00;147516.09;5091943;28;20241;-60
2022/11/28 07:07:05;;;;;;;8.60;7.83;;;;;;;5.88;100.00;147528.72;5091554;28;20188;-60
2022/11/28 07:09:34;;;;;;;8.33;7.83;;;;;;;5.85;100.00;147519.88;5092024;28;20188;-59
2022/11/28 07:12:01;;;;;;;7.63;7.13;;;;;;;5.86;100.00;147523.66;5091848;28;20562;-59
2022/11/28 07:14:28;;;;;;;8.30;7.50;;;;;;;5.96;100.00;147547.59;5091875;28;20188;-61
2022/11/28 07:16:55;;;;;;;7.93;7.37;;;;;;;6.04;100.00;147566.50;5091972;28;20188;-60
2022/11/28 07:19:22;;;;;;;7.53;7.03;;;;;;;6.03;100.00;147565.22;5092059;28;20655;-60
2022/11/28 07:21:50;;;;;;;7.90;7.17;;;;;;;5.99;100.00;147555.16;5091573;28;20208;-59
2022/11/28 07:24:17;;;;;;;7.60;6.93;;;;;;;6.00;100.00;147557.69;5091678;28;20201;-60
2022/11/28 07:26:45;;;;;;;7.80;7.17;;;;;;;6.14;100.00;147591.69;5092148;28;20614;-60
2022/11/28 07:29:14;;;;;;;7.60;7.10;;;;;;;6.10;100.00;147582.88;5092795;28;20589;-59
2022/11/28 07:31:42;;;;;;;7.20;6.67;;;;;;;6.16;100.00;147596.72;5091522;28;20223;-60
2022/11/28 07:34:14;;;;;;;7.93;7.13;;;;;;;6.19;100.00;147604.31;5091557;28;20265;-60
2022/11/28 07:36:44;;;;;;;7.70;7.00;;;;;;;6.22;100.00;147613.09;5090565;28;20184;-60
2022/11/28 07:39:16;;;;;;;6.80;6.30;;;;;;;6.23;100.00;147615.63;5091626;28;20195;-60
2022/11/28 07:41:43;;;;;;;6.73;6.33;;;;;;;6.30;100.00;147633.25;5091641;28;20196;-60
2022/11/28 07:44:11;;;;;;;7.27;6.63;;;;;;;6.27;100.00;147625.72;5091824;28;20223;-60
2022/11/28 07:46:39;;;;;;;7.00;6.57;;;;;;;6.27;100.00;147625.72;5091419;28;20206;-59
2022/11/28 07:49:06;;;;;;;7.83;7.43;;;;;;;6.23;100.00;147615.63;5091636;28;20794;-59
2022/11/28 07:51:34;;;;;;;7.93;7.30;;;;;;;6.35;100.00;147644.59;5091881;28;20639;-60
2022/11/28 07:54:01;;;;;;;7.37;6.77;;;;;;;6.26;100.00;147623.19;5091651;28;20703;-60
2022/11/28 07:56:30;;;;;;;7.17;6.70;;;;;;;6.10;100.00;147581.63;5090872;28;20228;-60
2022/11/28 07:58:59;;;;;;;6.90;6.30;;;;;;;6.21;100.00;147609.31;5091217;28;20180;-59
2022/11/28 08:01:31;;;;;;;7.10;6.70;;;;;;;6.32;100.00;147637.06;5091499;28;20681;-61
2022/11/28 08:03:59;;;;;;;7.83;7.33;;;;;;;6.33;100.00;147640.81;5090282;28;20536;-59
2022/11/28 08:06:28;;;;;;;7.13;6.60;;;;;;;6.34;100.00;147642.06;5089905;28;20238;-60
2022/11/28 08:08:59;;;;;;;7.30;6.87;;;;;;;6.28;100.00;147628.19;5090758;28;20203;-60
2022/11/28 08:11:28;;;;;;;7.63;6.87;;;;;;;6.32;100.00;147637.06;5091679;28;20237;-60
2022/11/28 08:13:58;;;;;;;7.50;6.73;;;;;;;6.30;100.00;147632.00;5091527;28;20673;-60
2022/11/28 08:16:28;;;;;;;6.53;6.13;;;;;;;6.30;100.00;147632.00;5090385;28;20200;-60
2022/11/28 08:18:56;;;;;;;6.53;6.03;;;;;;;6.20;100.00;147606.78;5093583;28;20237;-59
2022/11/28 08:21:24;;;;;;;6.67;6.17;;;;;;;6.12;100.00;147587.91;5095004;28;20192;-61
2022/11/28 08:23:53;;;;;;;5.77;5.47;;;;;;;6.25;100.00;147619.38;5094914;28;20239;-60
2022/11/28 08:26:22;;;;;;;6.13;5.83;;;;;;;6.30;100.00;147632.00;5095238;28;20245;-60
2022/11/28 08:28:50;;;;;;;6.87;6.37;;;;;;;6.27;100.00;147625.72;5094858;28;20307;-60
2022/11/28 08:31:19;;;;;;;6.83;6.33;;;;;;;6.28;100.00;147628.19;5095438;28;20670;-59
2022/11/28 08:33:52;;;;;;;8.23;6.80;;;;;;;6.32;100.00;147637.06;5095256;28;20287;-60
2022/11/28 08:36:20;;;;;;;7.40;6.90;;;;;;;6.50;100.00;147681.09;5095275;28;20219;-60
2022/11/28 08:38:48;;;;;;;7.80;7.20;;;;;;;6.37;100.00;147649.59;5082374;28;20184;-60
2022/11/28 08:41:17;;;;;;;7.60;7.00;;;;;;;6.38;100.00;147652.13;5092057;28;20615;-60
2022/11/28 08:43:45;;;;;;;7.53;7.10;;;;;;;6.51;100.00;147683.63;5094151;28;20203;-60
2022/11/28 08:46:17;;;;;;;7.70;6.93;;;;;;;6.60;100.00;147707.59;5094616;28;20595;-60
2022/11/28 08:48:44;;;;;;;7.60;7.10;;;;;;;6.66;100.00;147722.66;5094101;28;20211;-60
2022/11/28 08:51:15;;;;;;;8.47;7.17;;;;;;;6.53;100.00;147688.69;5093966;28;20180;-60
2022/11/28 08:53:43;;;;;;;7.40;6.93;;;;;;;6.48;100.00;147677.34;5093857;28;20261;-60
2022/11/28 08:56:10;;;;;;;6.80;6.43;;;;;;;6.51;100.00;147683.63;5093859;28;20284;-60
2022/11/28 08:58:38;;;;;;;6.90;6.40;;;;;;;6.61;100.00;147708.84;5093933;28;20184;-60
2022/11/28 09:01:05;;;;;;;7.27;6.87;;;;;;;6.53;100.00;147688.69;5093900;28;20279;-60
2022/11/28 09:03:32;;;;;;;6.80;6.40;;;;;;;6.41;100.00;147660.94;5094009;28;20671;-60
2022/11/28 09:06:01;;;;;;;7.50;7.10;;;;;;;6.42;100.00;147663.47;5094101;28;20188;-60
2022/11/28 09:08:30;;;;;;;6.57;6.17;;;;;;;6.23;100.00;147614.38;5094722;28;20215;-61
2022/11/28 09:10:57;;;;;;;7.70;7.20;;;;;;;6.32;100.00;147638.28;5094238;28;20278;-60
2022/11/28 09:13:24;;;;;;;7.70;7.20;;;;;;;6.33;100.00;147640.81;5094352;28;20224;-60
2022/11/28 09:15:51;;;;;;;7.17;6.77;;;;;;;6.39;100.00;147654.66;5094006;28;20216;-60
2022/11/28 09:18:18;;;;;;;7.57;7.17;;;;;;;6.49;100.00;147678.63;5093975;28;20271;-60
2022/11/28 09:20:46;;;;;;;7.03;6.63;;;;;;;6.49;100.00;147678.63;5093796;28;20619;-60
2022/11/28 09:23:13;;;;;;;7.20;6.73;;;;;;;6.50;100.00;147681.09;5093597;28;20204;-61
2022/11/28 09:25:41;;;;;;;7.00;6.53;;;;;;;6.50;100.00;147682.38;5093163;28;20211;-60
2022/11/28 09:28:10;;;;;;;6.43;6.13;;;;;;;6.43;100.00;147664.75;5093623;28;20250;-60
2022/11/28 09:30:36;;;;;;;7.33;6.50;;;;;;;6.55;100.00;147694.97;5093635;28;20241;-59
2022/11/28 09:33:03;;;;;;;6.60;6.20;;;;;;;6.31;100.00;147634.53;5093713;28;20184;-60
2022/11/28 09:35:30;;;;;;;6.63;6.10;;;;;;;6.47;100.00;147674.81;5094086;28;20223;-60
2022/11/28 09:37:58;;;;;;;7.03;6.63;;;;;;;6.52;100.00;147686.16;5092886;28;20184;-60
2022/11/28 09:40:31;;;;;;;7.73;7.13;;;;;;;6.55;100.00;147693.72;5093510;28;20625;-60
2022/11/28 09:43:02;;;;;;;7.00;6.40;;;;;;;6.62;100.00;147712.59;5093794;28;20218;-61
2022/11/28 09:45:30;;;;;;;7.43;6.97;;;;;;;6.55;100.00;147693.72;5093421;28;20203;-62
2022/11/28 09:48:05;;;;;;;7.10;6.33;;;;;;;6.61;100.00;147708.84;5094608;28;20543;-60
2022/11/28 09:50:35;;;;;;;7.30;6.60;;;;;;;6.67;100.00;147725.22;5093545;28;20231;-58
2022/11/28 09:53:14;;;;;;;5.83;5.43;;;;;;;6.64;100.00;147716.41;5093374;28;20279;-61
2022/11/28 09:55:46;;;;;;;7.77;7.20;;;;;;;6.53;100.00;147689.97;5094005;28;20199;-59
2022/11/28 09:58:19;;;;;;;7.97;7.20;;;;;;;6.81;100.00;147759.25;5093664;28;20184;-59
2022/11/28 10:00:51;;;;;;;6.80;6.23;;;;;;;6.78;100.00;147752.97;5093584;28;20180;-60
2022/11/28 10:03:32;;;;;;;6.80;6.13;;;;;;;6.80;100.00;147756.72;5093488;28;20204;-61
2022/11/28 10:06:07;;;;;;;7.10;6.50;;;;;;;6.84;100.00;147768.06;5093218;28;20187;-60
2022/11/28 10:08:43;;;;;;;8.47;7.03;;;;;;;6.97;100.00;147798.28;5093571;28;20261;-60
2022/11/28 10:11:24;;;;;;;7.80;7.10;;;;;;;7.10;100.00;147831.06;5093584;28;20261;-61
2022/11/28 10:14:03;;;;;;;6.67;6.23;;;;;;;7.02;100.00;147810.91;5092956;28;20227;-60
2022/11/28 10:16:45;;;;;;;7.33;6.43;;;;;;;7.12;100.00;147836.13;5093158;28;20325;-60
2022/11/28 10:19:17;;;;;;;6.37;6.07;;;;;;;7.20;100.00;147856.28;5092801;28;20188;-59
2022/11/28 10:21:49;;;;;;;6.57;6.27;;;;;;;7.15;100.00;147843.69;5093634;28;20257;-61
2022/11/28 10:24:20;;;;;;;5.73;5.43;;;;;;;7.04;100.00;147815.97;5093217;28;20262;-59
2022/11/28 10:26:49;;;;;;;6.37;6.03;;;;;;;7.00;100.00;147805.88;5093150;28;20631;-60
2022/11/28 10:29:26;;;;;;;13.47;6.93;;;;;;;7.05;100.00;147818.44;5091572;28;20184;-60
2022/11/28 10:31:57;;;;;;;6.93;6.53;;;;;;;7.17;100.00;147849.97;5089554;28;20298;-58
2022/11/28 10:34:30;;;;;;;6.60;6.20;;;;;;;7.16;100.00;147846.22;5092788;28;20180;-59
2022/11/28 10:37:03;;;;;;;6.37;5.87;;;;;;;7.24;100.00;147867.63;5092299;28;20283;-60
2022/11/28 10:39:30;;;;;;;16.53;8.00;;;;;;;7.39;100.00;147904.19;5091911;28;20193;-61
2022/11/28 10:42:14;;;;;;;10.43;6.83;;;;;;;7.38;100.00;147901.69;5092277;28;20223;-60
2022/11/28 10:44:54;;;;;;;6.90;6.40;;;;;;;7.43;100.00;147913.00;5092523;28;20239;-63
2022/11/28 10:47:39;;;;;;;7.47;6.97;;;;;;;7.33;100.00;147889.06;5092366;28;20267;-59
2022/11/28 10:50:16;;;;;;;8.00;6.83;;;;;;;7.19;100.00;147853.75;5092364;28;20234;-61
2022/11/28 10:52:47;;;;;;;7.07;6.60;;;;;;;7.19;100.00;147855.03;5091205;28;20215;-59
2022/11/28 10:55:28;;;;;;;7.93;6.70;;;;;;;7.35;100.00;147895.34;5091461;28;20558;-60
2022/11/28 10:58:08;;;;;;;6.67;6.23;;;;;;;7.37;100.00;147897.88;5094689;28;20269;-60
2022/11/28 11:00:38;;;;;;;7.10;6.53;;;;;;;7.33;100.00;147889.06;5092147;28;20223;-60
2022/11/28 11:03:10;;;;;;;7.27;6.87;;;;;;;7.29;100.00;147880.25;5092647;28;20733;-59
2022/11/28 11:05:37;;;;;;;7.60;7.10;;;;;;;7.10;100.00;147831.06;5092598;28;20188;-61
2022/11/28 11:08:17;;;;;;;7.60;7.00;;;;;;;7.17;100.00;147848.75;5092108;28;20195;-61
2022/11/28 11:10:49;;;;;;;6.93;6.53;;;;;;;7.09;100.00;147829.78;5092138;28;20192;-59
2022/11/28 11:13:18;;;;;;;7.97;7.37;;;;;;;6.97;100.00;147799.56;5092381;28;20617;-58
2022/11/28 11:15:47;;;;;;;8.23;7.50;;;;;;;6.81;100.00;147759.25;5091860;28;20180;-59
2022/11/28 11:18:27;;;;;;;20.80;8.90;;;;;;;6.87;100.00;143367.53;5091823;28;20241;-60
2022/11/28 11:21:08;;;;;;;8.33;7.60;;;;;;;6.83;100.00;143281.31;5091799;28;20223;-59
2022/11/28 11:23:37;;;;;;;7.30;6.80;;;;;;;6.83;100.00;140299.28;5091674;28;20237;-59
2022/11/28 11:26:08;;;;;;;7.50;7.10;;;;;;;6.68;100.00;139378.41;5091684;28;20227;-60
2022/11/28 11:28:45;;;;;;;10.67;8.23;;;;;;;6.79;100.00;133107.91;5092123;28;20536;-60
2022/11/28 11:31:21;;;;;;;9.07;8.23;;;;;;;6.75;100.00;134608.25;5091635;28;20199;-60
2022/11/28 11:33:51;;;;;;;9.23;8.47;;;;;;;6.74;100.00;135065.41;5091953;28;20211;-61
2022/11/28 11:36:27;;;;;;;9.40;8.03;;;;;;;6.70;100.00;134960.69;5091569;28;20187;-59
2022/11/28 11:39:19;;;;;;;9.23;8.53;;;;;;;6.69;100.00;130439.75;5091837;28;20184;-60
2022/11/28 11:41:48;;;;;;;9.83;8.93;;;;;;;6.60;100.00;129474.06;5091941;28;20219;-61
2022/11/28 11:44:33;;;;;;;10.30;9.23;;;;;;;6.69;100.00;132473.97;5091926;28;20280;-58